Time;durP1;ratioP1;P1;durP2;ratioP2;P2;SDS_P1;SDS_P2;PMS_P1;PMS_P2;Temp;Humidity;BMP_temperature;BMP_pressure;BME280_temperature;BME280_humidity;BME280_pressure;Samples;Min_cycle;Max_cycle;Signal;HPM_P1;HPM_P2
2023/06/09 00:00:57;;;;;;;;;31.33;29.00;;;;;24.30;43.61;100755.88;5072421;27;46259;-61
2023/06/09 00:03:23;;;;;;;;;25.33;23.67;;;;;24.26;43.67;100747.22;5066316;27;68104;-61
2023/06/09 00:05:49;;;;;;;;;26.00;26.00;;;;;24.21;44.13;100749.56;5070587;28;45672;-60
2023/06/09 00:08:14;;;;;;;;;28.00;25.33;;;;;24.17;44.05;100740.94;5070028;28;45610;-60
2023/06/09 00:10:40;;;;;;;;;28.00;24.67;;;;;24.13;43.74;100750.41;5067643;27;46231;-61
2023/06/09 00:13:06;;;;;;;;;27.00;26.33;;;;;24.11;44.36;100739.72;5059177;28;45359;-61
2023/06/09 00:15:31;;;;;;;;;28.33;26.33;;;;;24.08;44.33;100737.34;5066380;28;45425;-61
2023/06/09 00:17:57;;;;;;;;;24.00;22.67;;;;;24.04;44.56;100732.41;5059373;28;63675;-61
2023/06/09 00:20:25;;;;;;;;;24.00;23.00;;;;;23.99;44.98;100735.63;5058618;28;71210;-60
2023/06/09 00:22:51;;;;;;;;;21.00;21.00;;;;;23.92;44.80;100732.72;5059894;27;45387;-61
2023/06/09 00:25:20;;;;;;;;;24.33;24.33;;;;;23.90;44.94;100731.19;5058908;28;45338;-61
2023/06/09 00:27:45;;;;;;;;;24.00;24.00;;;;;23.90;45.19;100736.63;5068010;28;45602;-61
2023/06/09 00:30:14;;;;;;;;;22.67;22.00;;;;;23.88;44.64;100728.59;5060377;28;45450;-61
2023/06/09 00:32:41;;;;;;;;;28.00;26.33;;;;;23.88;44.81;100734.03;5068121;28;45310;-61
2023/06/09 00:35:06;;;;;;;;;29.00;27.67;;;;;23.87;44.92;100737.78;5073431;27;45421;-61
2023/06/09 00:37:32;;;;;;;;;26.00;24.33;;;;;23.86;44.73;100736.06;5066289;27;45592;-61
2023/06/09 00:39:57;;;;;;;;;27.00;23.33;;;;;23.85;44.47;100730.81;5068977;28;70146;-61
2023/06/09 00:42:23;;;;;;;;;26.00;25.00;;;;;23.82;44.99;100721.13;5070500;27;45646;-61
2023/06/09 00:44:48;;;;;;;;;20.00;20.00;;;;;23.79;44.85;100724.16;5068920;28;45371;-61
2023/06/09 00:47:14;;;;;;;;;26.00;26.00;;;;;23.74;45.52;100716.53;5068139;28;66980;-61
2023/06/09 00:49:39;;;;;;;;;25.33;22.67;;;;;23.72;45.22;100715.81;5071359;27;74223;-61
2023/06/09 00:52:06;;;;;;;;;28.33;27.33;;;;;23.70;45.49;100719.72;5064218;28;45422;-61
2023/06/09 00:54:31;;;;;;;;;24.33;24.00;;;;;23.67;45.35;100715.47;5077515;27;45456;-61
2023/06/09 00:56:57;;;;;;;;;26.33;26.00;;;;;23.66;45.92;100712.94;5086929;27;48266;-61
2023/06/09 00:59:22;;;;;;;;;24.67;23.00;;;;;23.64;45.96;100712.25;5062536;28;65067;-61
2023/06/09 01:01:48;;;;;;;;;27.00;25.67;;;;;23.61;45.76;100708.84;5084217;27;45527;-61
2023/06/09 01:04:13;;;;;;;;;31.33;27.33;;;;;23.60;45.87;100700.88;5067067;28;45390;-61
2023/06/09 01:06:57;;;;;;;;;24.33;22.00;;;;;23.59;45.61;100708.16;5073386;28;48544;-61
2023/06/09 01:09:32;;;;;;;;;27.00;27.00;;;;;23.56;45.91;100697.63;5069298;28;45518;-61
2023/06/09 01:11:57;;;;;;;;;28.00;26.33;;;;;23.57;45.86;100701.19;5084526;27;45480;-61
2023/06/09 01:14:35;;;;;;;;;29.33;25.33;;;;;23.56;46.48;100696.78;5073066;28;45373;-61
2023/06/09 01:17:11;;;;;;;;;24.00;23.00;;;;;23.52;46.93;100700.81;5080435;27;45310;-61
2023/06/09 01:19:40;;;;;;;;;26.00;25.33;;;;;23.46;46.12;100699.63;5069996;28;46507;-61
2023/06/09 01:22:36;;;;;;;;;25.67;25.67;;;;;23.44;45.84;100697.06;5059179;28;45670;-61
2023/06/09 01:25:05;;;;;;;;;26.67;26.33;;;;;23.43;46.65;100697.25;5075032;27;45326;-60
2023/06/09 01:27:32;;;;;;;;;28.33;26.67;;;;;23.40;46.52;100689.41;5077251;27;46061;-60
2023/06/09 01:29:58;;;;;;;;;29.00;27.00;;;;;23.35;46.58;100686.34;5070829;28;45518;-61
2023/06/09 01:32:26;;;;;;;;;28.67;26.67;;;;;23.37;46.54;100692.47;5065063;28;45465;-60
2023/06/09 01:34:52;;;;;;;;;27.67;26.00;;;;;23.48;46.33;100689.47;5086788;27;45393;-61
2023/06/09 01:37:18;;;;;;;;;23.00;22.33;;;;;23.29;46.96;100682.44;5065214;28;60517;-60
2023/06/09 01:39:45;;;;;;;;;25.00;23.33;;;;;23.24;46.94;100677.47;5069997;28;73729;-60
2023/06/09 01:42:11;;;;;;;;;26.67;26.67;;;;;23.22;46.82;100686.78;5065527;27;45491;-61
2023/06/09 01:44:36;;;;;;;;;25.67;25.67;;;;;23.18;48.76;100677.28;5072847;28;45550;-60
2023/06/09 01:47:02;;;;;;;;;23.33;21.67;;;;;23.12;47.31;100678.75;5063754;28;45782;-60
2023/06/09 01:49:53;;;;;;;;;30.33;28.33;;;;;23.07;47.31;100675.69;5074862;28;45477;-60
2023/06/09 01:52:27;;;;;;;;;25.33;25.33;;;;;23.04;47.44;100681.44;5065138;28;45350;-60
2023/06/09 01:54:55;;;;;;;;;26.33;25.33;;;;;23.01;48.43;100682.59;5072403;28;45589;-61
2023/06/09 01:57:29;;;;;;;;;24.67;24.67;;;;;22.98;47.38;100680.19;5078652;27;46635;-61
2023/06/09 01:59:59;;;;;;;;;21.00;21.00;;;;;23.09;47.77;100679.09;5065818;28;46376;-60
2023/06/09 02:02:30;;;;;;;;;24.33;23.33;;;;;23.14;47.30;100671.34;5055187;28;45707;-60
2023/06/09 02:04:56;;;;;;;;;29.33;28.33;;;;;23.15;47.19;100674.91;5067939;28;45544;-61
2023/06/09 02:07:22;;;;;;;;;28.67;26.33;;;;;23.12;47.53;100667.91;5077718;27;68893;-61
2023/06/09 02:09:48;;;;;;;;;26.00;25.00;;;;;23.06;47.33;100673.97;5068527;27;46577;-60
2023/06/09 02:12:14;;;;;;;;;24.33;24.00;;;;;23.04;47.70;100682.28;5071888;28;72877;-62
2023/06/09 02:14:40;;;;;;;;;29.67;26.67;;;;;23.02;47.74;100680.72;5068606;28;45485;-60
2023/06/09 02:17:08;;;;;;;;;28.33;27.00;;;;;23.00;48.62;100674.59;5063861;28;45406;-61
2023/06/09 02:19:37;;;;;;;;;23.00;21.67;;;;;22.92;47.56;100665.44;5066091;28;48048;-62
2023/06/09 02:22:07;;;;;;;;;30.00;26.00;;;;;22.87;48.16;100664.22;5072616;27;45403;-60
2023/06/09 02:24:33;;;;;;;;;26.67;25.33;;;;;23.00;47.53;100671.91;5068579;28;45425;-62
2023/06/09 02:26:59;;;;;;;;;27.33;23.67;;;;;22.84;48.32;100667.22;5065082;28;45587;-62
2023/06/09 02:29:25;;;;;;;;;27.33;24.67;;;;;22.81;47.96;100665.69;5068194;28;46001;-62
2023/06/09 02:31:55;;;;;;;;;28.00;28.00;;;;;22.78;48.66;100656.03;5070773;28;45621;-62
2023/06/09 02:34:22;;;;;;;;;25.67;25.67;;;;;22.77;48.22;100658.91;5073650;27;45378;-61
2023/06/09 02:36:49;;;;;;;;;27.33;25.33;;;;;22.75;48.87;100652.78;5067665;27;45364;-60
2023/06/09 02:39:14;;;;;;;;;24.67;22.33;;;;;22.71;48.33;100652.25;5082424;27;45720;-60
2023/06/09 02:41:40;;;;;;;;;24.67;23.33;;;;;22.66;49.13;100653.72;5066449;27;45661;-60
2023/06/09 02:44:05;;;;;;;;;28.33;23.00;;;;;22.61;48.83;100646.09;5065468;28;64472;-60
2023/06/09 02:46:33;;;;;;;;;30.00;25.67;;;;;22.61;48.48;100651.53;5079644;27;45810;-60
2023/06/09 02:48:59;;;;;;;;;28.33;25.67;;;;;22.58;48.80;100643.69;5078141;27;46334;-61
2023/06/09 02:51:24;;;;;;;;;28.33;28.33;;;;;22.55;49.30;100639.44;5079780;27;45911;-60
2023/06/09 02:53:50;;;;;;;;;26.33;25.33;;;;;22.52;48.73;100642.47;5078201;27;62558;-60
2023/06/09 02:56:17;;;;;;;;;25.00;22.67;;;;;22.50;49.15;100643.63;5067894;27;45359;-61
2023/06/09 02:58:42;;;;;;;;;26.67;25.67;;;;;22.41;49.53;100643.59;5063861;28;45441;-61
2023/06/09 03:01:08;;;;;;;;;28.33;26.00;;;;;22.40;49.35;100639.19;5070836;27;45599;-60
2023/06/09 03:03:34;;;;;;;;;26.00;22.33;;;;;22.41;49.55;100650.84;5077414;28;45496;-60
2023/06/09 03:06:00;;;;;;;;;27.00;26.00;;;;;22.39;49.25;100640.19;5073540;27;45706;-60
2023/06/09 03:08:25;;;;;;;;;24.00;23.00;;;;;22.41;48.95;100648.13;5068537;28;45418;-60
2023/06/09 03:10:52;;;;;;;;;28.00;26.00;;;;;22.40;49.69;100654.59;5073462;27;45848;-60
2023/06/09 03:13:18;;;;;;;;;25.33;25.33;;;;;22.41;49.10;100656.28;5071970;28;45511;-60
2023/06/09 03:15:44;;;;;;;;;23.67;23.00;;;;;22.41;49.27;100648.13;5065670;27;45370;-62
2023/06/09 03:18:09;;;;;;;;;29.33;25.00;;;;;22.29;49.54;100651.09;5071471;28;47048;-60
2023/06/09 03:20:36;;;;;;;;;27.33;25.33;;;;;22.30;49.77;100654.63;5070852;27;45448;-62
2023/06/09 03:23:01;;;;;;;;;23.67;23.00;;;;;22.33;49.52;100651.59;5067830;27;45484;-60
2023/06/09 03:25:27;;;;;;;;;26.00;25.00;;;;;22.31;50.12;100645.50;5071824;27;45574;-60
2023/06/09 03:27:53;;;;;;;;;25.33;25.33;;;;;22.29;49.61;100651.09;5065529;27;45548;-60
2023/06/09 03:30:18;;;;;;;;;29.00;26.67;;;;;22.25;49.94;100649.72;5074116;28;45369;-60
2023/06/09 03:32:44;;;;;;;;;29.67;28.00;;;;;22.22;50.47;100647.28;5071367;28;45198;-60
2023/06/09 03:35:09;;;;;;;;;26.67;26.67;;;;;22.20;49.37;100645.75;5069646;27;45391;-60
2023/06/09 03:37:35;;;;;;;;;31.33;27.00;;;;;22.18;49.94;100645.91;5056740;28;51463;-60
2023/06/09 03:40:00;;;;;;;;;25.67;23.33;;;;;22.16;50.35;100645.19;5069993;28;45532;-60
2023/06/09 03:42:26;;;;;;;;;26.33;25.67;;;;;22.11;49.88;100648.41;5066816;27;66354;-60
2023/06/09 03:44:57;;;;;;;;;28.33;26.67;;;;;22.10;50.04;100648.56;5062116;27;45427;-60
2023/06/09 03:47:23;;;;;;;;;25.00;25.00;;;;;22.10;49.93;100643.97;5070615;28;45360;-60
2023/06/09 03:49:48;;;;;;;;;24.33;24.33;;;;;22.08;50.67;100643.28;5068868;27;56148;-60
2023/06/09 03:52:13;;;;;;;;;26.00;24.00;;;;;22.07;50.01;100640.72;5064689;28;65583;-60
2023/06/09 03:54:39;;;;;;;;;27.67;25.00;;;;;22.05;49.73;100638.19;5070980;28;60250;-60
2023/06/09 03:57:04;;;;;;;;;36.67;30.00;;;;;22.04;50.09;100641.88;5062390;28;46022;-60
2023/06/09 03:59:30;;;;;;;;;27.67;27.00;;;;;22.04;50.22;100646.47;5065309;27;45394;-60
2023/06/09 04:01:55;;;;;;;;;32.00;26.33;;;;;22.05;50.47;100646.31;5064582;28;55564;-60
2023/06/09 04:04:20;;;;;;;;;23.33;21.00;;;;;22.06;50.11;100644.44;5067060;27;45470;-60
2023/06/09 04:06:46;;;;;;;;;27.33;26.67;;;;;22.07;49.91;100646.16;5088279;27;45447;-61
2023/06/09 04:09:12;;;;;;;;;22.33;20.33;;;;;22.06;50.67;100645.31;5069961;28;45367;-61
2023/06/09 04:11:38;;;;;;;;;30.67;26.67;;;;;22.08;50.61;100643.28;5067488;28;45421;-60
2023/06/09 04:14:04;;;;;;;;;26.33;24.00;;;;;22.07;50.03;100644.31;5068348;27;45404;-60
2023/06/09 04:16:29;;;;;;;;;25.00;21.67;;;;;22.09;50.56;100638.72;5072589;27;45412;-60
2023/06/09 04:18:54;;;;;;;;;24.33;24.33;;;;;22.11;49.96;100634.00;5073635;28;45800;-60
2023/06/09 04:21:20;;;;;;;;;27.33;26.33;;;;;22.09;50.77;100638.72;5074496;27;56013;-60
2023/06/09 04:23:45;;;;;;;;;28.00;25.33;;;;;22.10;50.54;100635.03;5069027;28;45385;-60
2023/06/09 04:26:13;;;;;;;;;28.67;28.67;;;;;22.12;50.18;100641.13;5066441;28;46556;-60
2023/06/09 04:28:39;;;;;;;;;26.00;26.00;;;;;22.13;50.57;100645.53;5073588;28;45994;-61
2023/06/09 04:31:06;;;;;;;;;25.00;22.67;;;;;22.12;50.51;100654.66;5064403;28;45729;-60
2023/06/09 04:33:32;;;;;;;;;26.67;26.00;;;;;22.13;50.40;100649.06;5068895;27;45553;-60
2023/06/09 04:35:58;;;;;;;;;24.67;23.00;;;;;22.13;50.34;100656.34;5062923;28;46313;-60
2023/06/09 04:38:24;;;;;;;;;26.33;26.33;;;;;22.17;50.22;100657.75;5061596;28;62288;-61
2023/06/09 04:40:49;;;;;;;;;26.00;23.67;;;;;22.19;50.39;100660.28;5072206;28;45540;-60
2023/06/09 04:43:16;;;;;;;;;28.67;27.00;;;;;22.18;50.32;100651.31;5090608;27;45519;-60
2023/06/09 04:45:43;;;;;;;;;27.00;26.67;;;;;22.20;49.67;100648.47;5066476;27;46026;-60
2023/06/09 04:48:08;;;;;;;;;24.33;24.33;;;;;22.19;50.38;100663.88;5070439;28;45246;-60
2023/06/09 04:50:35;;;;;;;;;30.00;24.00;;;;;22.16;50.96;100656.03;5063419;27;59140;-60
2023/06/09 04:53:03;;;;;;;;;27.00;25.33;;;;;22.15;50.09;100659.78;5064551;28;45311;-60
2023/06/09 04:55:29;;;;;;;;;27.33;24.33;;;;;22.14;50.26;100664.31;5067658;28;46323;-60
2023/06/09 04:57:56;;;;;;;;;21.00;19.33;;;;;22.14;50.33;100663.50;5064710;28;45468;-60
2023/06/09 05:00:22;;;;;;;;;27.33;26.33;;;;;22.14;50.23;100667.03;5058991;28;45361;-60
2023/06/09 05:02:49;;;;;;;;;27.33;24.00;;;;;22.12;50.72;100658.22;5065791;28;45600;-60
2023/06/09 05:05:15;;;;;;;;;30.00;26.67;;;;;22.13;50.83;100662.63;5060152;28;45561;-60
2023/06/09 05:07:41;;;;;;;;;20.00;19.67;;;;;22.18;50.49;100669.44;5066068;28;45817;-60
2023/06/09 05:10:08;;;;;;;;;23.00;22.67;;;;;22.23;50.48;100662.53;5084895;27;45507;-60
2023/06/09 05:12:35;;;;;;;;;31.67;29.33;;;;;22.28;49.95;100659.34;5068524;27;45516;-61
2023/06/09 05:15:00;;;;;;;;;29.00;25.67;;;;;22.33;49.91;100656.19;5071705;27;46316;-61
2023/06/09 05:17:26;;;;;;;;;22.00;21.33;;;;;22.35;50.29;100659.59;5060130;27;45960;-61
2023/06/09 05:19:52;;;;;;;;;26.00;24.00;;;;;22.37;50.15;100657.59;5077733;27;45355;-61
2023/06/09 05:22:17;;;;;;;;;29.00;25.33;;;;;22.40;50.11;100658.13;5059635;28;45576;-60
2023/06/09 05:24:42;;;;;;;;;26.00;24.00;;;;;22.43;49.96;100665.94;5072780;28;69465;-61
2023/06/09 05:27:08;;;;;;;;;30.00;27.00;;;;;22.48;49.89;100664.66;5063237;27;61936;-61
2023/06/09 05:29:33;;;;;;;;;29.33;25.67;;;;;22.54;50.14;100664.00;5062123;28;45330;-61
2023/06/09 05:31:58;;;;;;;;;24.67;24.67;;;;;22.60;49.63;100658.78;5074195;27;48711;-61
2023/06/09 05:34:24;;;;;;;;;28.00;28.00;;;;;22.67;49.51;100667.16;5068947;27;63558;-61
2023/06/09 05:36:49;;;;;;;;;20.00;20.00;;;;;22.73;49.35;100662.94;5060880;28;45279;-61
2023/06/09 05:39:15;;;;;;;;;27.67;26.67;;;;;22.84;49.30;100673.53;5063356;28;45342;-61
2023/06/09 05:41:41;;;;;;;;;28.67;27.00;;;;;22.91;49.19;100668.31;5061451;27;45509;-61
2023/06/09 05:44:06;;;;;;;;;20.33;19.33;;;;;22.98;49.14;100672.06;5069161;28;66490;-60
2023/06/09 05:46:31;;;;;;;;;25.00;24.00;;;;;23.13;48.68;100672.31;5065839;27;55619;-61
2023/06/09 05:48:57;;;;;;;;;22.67;22.33;;;;;23.29;47.78;100674.28;5057258;28;45438;-61
2023/06/09 05:51:23;;;;;;;;;28.33;26.67;;;;;23.40;47.81;100681.28;5063989;28;59457;-61
2023/06/09 05:53:48;;;;;;;;;29.33;25.67;;;;;23.44;47.54;100682.63;5060414;28;45579;-61
2023/06/09 05:56:16;;;;;;;;;26.00;26.00;;;;;23.49;47.44;100688.44;5071435;27;55221;-61
2023/06/09 05:58:44;;;;;;;;;24.67;24.00;;;;;23.56;47.39;100686.78;5074091;27;45900;-61
2023/06/09 06:01:11;;;;;;;;;28.33;27.67;;;;;23.64;47.12;100685.94;5064658;28;45294;-61
2023/06/09 06:03:36;;;;;;;;;22.67;21.33;;;;;23.74;46.77;100692.09;5063550;28;45419;-61
2023/06/09 06:06:03;;;;;;;;;24.00;22.33;;;;;23.77;46.88;100697.19;5063915;27;61247;-61
2023/06/09 06:08:28;;;;;;;;;26.67;24.33;;;;;23.85;46.25;100690.06;5066335;28;45484;-61
2023/06/09 06:10:54;;;;;;;;;24.67;24.67;;;;;23.89;46.56;100688.72;5066279;28;52287;-60
2023/06/09 06:13:19;;;;;;;;;27.00;25.00;;;;;23.98;46.03;100684.19;5082238;27;46022;-60
2023/06/09 06:15:45;;;;;;;;;22.00;22.00;;;;;24.06;45.91;100687.75;5072039;28;45460;-60
2023/06/09 06:18:10;;;;;;;;;28.33;26.33;;;;;24.17;45.47;100686.59;5078846;27;45365;-60
2023/06/09 06:20:36;;;;;;;;;25.67;23.33;;;;;24.29;45.45;100681.66;5077415;27;45372;-60
2023/06/09 06:23:01;;;;;;;;;24.67;23.33;;;;;24.39;44.86;100681.47;5065404;28;45616;-60
2023/06/09 06:25:28;;;;;;;;;25.67;24.33;;;;;24.49;45.07;100681.31;5070653;27;45457;-60
2023/06/09 06:27:55;;;;;;;;;26.33;26.33;;;;;24.66;44.96;100680.31;5069824;28;45390;-60
2023/06/09 06:30:20;;;;;;;;;23.67;23.67;;;;;24.86;43.73;100678.06;5088463;27;45367;-60
2023/06/09 06:32:52;;;;;;;;;24.67;24.67;;;;;25.05;43.94;100665.94;5070800;27;46003;-60
2023/06/09 06:35:28;;;;;;;;;21.33;21.33;;;;;25.63;43.20;100671.19;5072148;28;45429;-60
2023/06/09 06:37:54;;;;;;;;;25.33;24.00;;;;;26.73;42.36;100674.63;5069677;27;45573;-61
2023/06/09 06:40:19;;;;;;;;;22.67;21.67;;;;;28.01;40.32;100671.66;5072441;28;45457;-61
2023/06/09 06:42:45;;;;;;;;;28.00;24.00;;;;;29.33;39.09;100666.56;5062979;28;46788;-61
2023/06/09 06:45:10;;;;;;;;;25.67;23.67;;;;;30.65;37.68;100668.94;5066683;28;45655;-61
2023/06/09 06:47:35;;;;;;;;;21.33;20.00;;;;;32.02;35.58;100670.81;5069819;28;45504;-61
2023/06/09 06:50:01;;;;;;;;;25.00;22.00;;;;;33.17;34.44;100676.13;5068700;27;51481;-61
2023/06/09 06:52:27;;;;;;;;;27.33;23.00;;;;;34.22;33.20;100676.84;5062769;28;45814;-61
2023/06/09 06:54:52;;;;;;;;;25.33;23.00;;;;;35.01;30.77;100672.97;5070269;28;45460;-61
2023/06/09 06:57:18;;;;;;;;;21.00;21.00;;;;;35.76;29.83;100680.31;5068022;28;45347;-62
2023/06/09 06:59:43;;;;;;;;;19.00;19.00;;;;;36.54;29.20;100681.69;5066962;27;66059;-62
2023/06/09 07:02:09;;;;;;;;;23.33;21.00;;;;;37.40;26.16;100677.66;5064478;28;46006;-62
2023/06/09 07:04:35;;;;;;;;;19.33;18.00;;;;;38.08;25.47;100681.97;5069804;28;45453;-62
2023/06/09 07:07:00;;;;;;;;;18.33;18.33;;;;;38.53;25.90;100675.16;5068444;28;45970;-61
2023/06/09 07:09:27;;;;;;;;;19.00;19.00;;;;;38.94;24.47;100677.38;5065343;28;45524;-62
2023/06/09 07:11:52;;;;;;;;;19.00;18.33;;;;;39.13;24.48;100681.34;5064758;28;46741;-61
2023/06/09 07:14:18;;;;;;;;;23.67;20.67;;;;;39.56;24.23;100684.03;5068812;28;49582;-61
2023/06/09 07:16:43;;;;;;;;;19.67;17.67;;;;;40.18;23.66;100686.94;5068715;27;45542;-61
2023/06/09 07:19:09;;;;;;;;;20.33;20.33;;;;;40.75;22.97;100682.16;5075799;28;63911;-61
2023/06/09 07:21:36;;;;;;;;;20.33;18.67;;;;;41.42;21.74;100687.56;5073599;27;46012;-62
2023/06/09 07:24:01;;;;;;;;;20.33;18.67;;;;;41.77;20.73;100682.88;5080700;27;45379;-61
2023/06/09 07:26:26;;;;;;;;;21.00;17.00;;;;;41.88;20.85;100699.56;5068350;27;45350;-61
2023/06/09 07:28:52;;;;;;;;;18.67;18.67;;;;;42.14;21.00;100694.66;5076223;28;45422;-62
2023/06/09 07:31:17;;;;;;;;;19.00;19.00;;;;;42.69;19.94;100696.44;5076452;27;64623;-62
2023/06/09 07:33:43;;;;;;;;;14.33;14.00;;;;;43.15;17.11;100704.28;5065735;28;59555;-62
2023/06/09 07:36:11;;;;;;;;;19.67;18.33;;;;;43.62;19.82;100708.16;5067648;27;45429;-62
2023/06/09 07:38:44;;;;;;;;;19.67;19.67;;;;;44.20;18.26;100705.31;5072433;27;45247;-62
2023/06/09 07:41:09;;;;;;;;;19.00;18.67;;;;;44.65;18.12;100705.66;5067506;28;45755;-62
2023/06/09 07:43:35;;;;;;;;;20.00;19.00;;;;;44.71;18.05;100701.66;5066858;28;45326;-62
2023/06/09 07:46:00;;;;;;;;;23.33;19.67;;;;;44.89;17.27;100708.31;5074766;28;45676;-62
2023/06/09 07:48:26;;;;;;;;;19.33;18.00;;;;;44.84;18.26;100701.97;5071632;28;45484;-62
2023/06/09 07:50:52;;;;;;;;;21.67;21.67;;;;;45.16;17.33;100700.22;5066725;28;50259;-62
2023/06/09 07:53:17;;;;;;;;;21.00;19.67;;;;;45.51;17.01;100711.84;5063200;28;45490;-62
2023/06/09 07:55:43;;;;;;;;;18.33;18.00;;;;;45.98;16.95;100706.00;5070449;28;45445;-62
2023/06/09 07:58:08;;;;;;;;;23.67;22.00;;;;;46.50;16.54;100695.09;5065382;28;46722;-62
2023/06/09 08:00:33;;;;;;;;;18.00;18.00;;;;;47.18;13.35;100697.69;5073729;28;70443;-62
2023/06/09 08:03:01;;;;;;;;;19.00;19.00;;;;;47.78;15.98;100697.28;5076232;27;46347;-62
2023/06/09 08:05:26;;;;;;;;;19.00;19.00;;;;;48.37;14.62;100696.75;5086817;27;45499;-62
2023/06/09 08:07:52;;;;;;;;;16.00;16.00;;;;;48.61;14.70;100699.00;5068477;28;47073;-62
2023/06/09 08:10:17;;;;;;;;;21.67;21.00;;;;;49.10;14.26;100692.16;5074732;28;46523;-62
2023/06/09 08:12:43;;;;;;;;;19.67;17.00;;;;;49.48;13.55;100692.09;5076487;27;70180;-62
2023/06/09 08:15:08;;;;;;;;;20.33;18.67;;;;;49.74;14.33;100688.25;5062835;28;68273;-62
2023/06/09 08:17:34;;;;;;;;;17.00;17.00;;;;;50.29;13.19;100689.03;5077826;27;45439;-63
2023/06/09 08:19:59;;;;;;;;;20.33;17.00;;;;;50.85;13.34;100693.38;5073604;27;46474;-62
2023/06/09 08:22:25;;;;;;;;;16.67;16.67;;;;;50.98;13.19;100682.84;5085300;27;46621;-62
2023/06/09 08:24:50;;;;;;;;;22.00;20.33;;;;;51.54;12.90;100685.03;5068408;28;45738;-63
2023/06/09 08:27:16;;;;;;;;;20.33;19.00;;;;;51.69;11.05;100680.59;5074498;28;45659;-63
2023/06/09 08:29:41;;;;;;;;;18.00;16.67;;;;;51.66;12.10;100674.81;5068966;28;72942;-62
2023/06/09 08:32:07;;;;;;;;;18.00;17.00;;;;;51.81;12.46;100673.25;5059163;28;45383;-63
2023/06/09 08:34:32;;;;;;;;;20.00;19.67;;;;;52.06;12.41;100680.44;5069012;28;45376;-63
2023/06/09 08:36:58;;;;;;;;;20.67;19.67;;;;;52.69;11.23;100675.19;5068966;27;63166;-63
2023/06/09 08:39:23;;;;;;;;;19.67;19.67;;;;;53.26;11.70;100672.91;5072211;27;45621;-63
2023/06/09 08:41:51;;;;;;;;;20.33;17.33;;;;;53.82;10.67;100671.66;5064954;27;45295;-63
2023/06/09 08:44:16;;;;;;;;;17.00;17.00;;;;;54.27;10.12;100669.28;5070417;28;45378;-63
2023/06/09 08:46:43;;;;;;;;;19.00;19.00;;;;;55.04;9.80;100670.13;5066412;28;45555;-63
2023/06/09 08:49:08;;;;;;;;;16.67;15.67;;;;;55.52;10.03;100660.22;5069743;28;53446;-63
2023/06/09 08:51:37;;;;;;;;;18.67;17.00;;;;;56.16;9.48;100660.09;5069972;28;45394;-63
2023/06/09 08:54:03;;;;;;;;;17.33;17.33;;;;;56.66;9.13;100658.88;5068292;28;45482;-63
2023/06/09 08:56:28;;;;;;;;;20.67;18.67;;;;;57.09;8.27;100650.63;5072780;27;45512;-63
2023/06/09 08:58:54;;;;;;;;;15.00;15.00;;;;;57.58;8.80;100662.66;5068241;27;47225;-63
2023/06/09 09:01:19;;;;;;;;;17.00;17.00;;;;;58.40;8.70;100654.63;5061369;28;45549;-63
2023/06/09 09:03:46;;;;;;;;;21.33;19.33;;;;;59.14;7.43;100663.50;5062772;28;45359;-64
2023/06/09 09:06:13;;;;;;;;;16.00;16.00;;;;;59.37;7.92;100662.22;5069544;28;45450;-64
2023/06/09 09:08:39;;;;;;;;;19.00;18.00;;;;;59.92;6.79;100655.75;5062206;28;46339;-64
2023/06/09 09:11:04;;;;;;;;;16.33;16.33;;;;;60.59;6.66;100654.78;5062205;28;45363;-64
2023/06/09 09:13:31;;;;;;;;;19.33;18.00;;;;;61.04;6.69;100651.06;5070692;28;45350;-64
2023/06/09 09:15:59;;;;;;;;;18.00;16.00;;;;;60.78;6.52;100662.00;5065081;27;45404;-64
2023/06/09 09:18:29;;;;;;;;;13.67;13.67;;;;;61.14;5.37;100663.63;5069948;28;45332;-64
2023/06/09 09:20:54;;;;;;;;;22.67;21.00;;;;;61.58;5.87;100667.59;5061678;28;45461;-64
2023/06/09 09:23:36;;;;;;;;;20.33;18.33;;;;;61.25;5.21;100658.59;5062205;28;45488;-64
2023/06/09 09:26:03;;;;;;;;;16.00;15.67;;;;;60.79;6.69;100648.44;5059272;28;45445;-64
2023/06/09 09:28:43;;;;;;;;;17.67;15.00;;;;;60.89;5.81;100648.31;5068057;28;47319;-64
2023/06/09 09:31:08;;;;;;;;;15.67;15.00;;;;;61.35;6.45;100649.00;5065003;27;45406;-64
2023/06/09 09:33:38;;;;;;;;;17.00;17.00;;;;;61.68;5.45;100640.72;5061746;28;45449;-64
2023/06/09 09:36:08;;;;;;;;;18.67;18.33;;;;;62.23;5.80;100643.56;5070991;27;45541;-64
2023/06/09 09:38:33;;;;;;;;;17.00;16.00;;;;;62.47;5.56;100641.50;5066596;28;45500;-64
2023/06/09 09:41:00;;;;;;;;;20.00;19.00;;;;;62.44;5.36;100633.75;5061767;28;66065;-64
2023/06/09 09:43:27;;;;;;;;;17.67;17.67;;;;;62.95;5.13;100639.34;5071667;27;45911;-64
2023/06/09 09:45:55;;;;;;;;;21.00;19.33;;;;;62.92;5.48;100633.66;5070949;28;45519;-65
2023/06/09 09:48:23;;;;;;;;;18.33;18.33;;;;;62.57;5.22;100624.47;5066943;28;45389;-65
2023/06/09 09:50:51;;;;;;;;;16.67;16.67;;;;;62.74;4.56;100629.06;5074040;27;45416;-64
2023/06/09 09:53:16;;;;;;;;;16.00;16.00;;;;;63.12;5.21;100634.47;5072175;28;45511;-64
2023/06/09 09:55:45;;;;;;;;;15.33;14.33;;;;;63.43;5.13;100631.28;5075068;28;45365;-64
2023/06/09 09:58:12;;;;;;;;;17.33;17.33;;;;;63.43;4.78;100627.63;5064853;28;45543;-65
2023/06/09 10:00:39;;;;;;;;;18.33;17.67;;;;;62.93;4.85;100618.78;5076565;28;45491;-65
2023/06/09 10:03:14;;;;;;;;;20.00;18.33;;;;;63.00;4.82;100614.97;5072199;27;45402;-65
2023/06/09 10:05:45;;;;;;;;;16.00;16.00;;;;;63.53;5.37;100617.09;5066740;27;45390;-64
2023/06/09 10:08:16;;;;;;;;;14.67;14.67;;;;;63.49;4.31;100608.53;5066333;28;45593;-65
2023/06/09 10:10:42;;;;;;;;;11.67;11.67;;;;;63.36;4.69;100608.44;5071637;28;45574;-65
2023/06/09 10:13:08;;;;;;;;;16.67;14.33;;;;;63.13;4.95;100610.13;5078683;27;45345;-64
2023/06/09 10:15:33;;;;;;;;;17.67;17.33;;;;;63.17;3.59;100610.06;5076494;28;45494;-65
2023/06/09 10:18:00;;;;;;;;;16.00;16.00;;;;;63.17;4.77;100604.31;5069272;27;70365;-65
2023/06/09 10:20:25;;;;;;;;;17.00;17.00;;;;;63.05;4.58;100605.81;5072612;28;45419;-65
2023/06/09 10:22:52;;;;;;;;;15.67;14.00;;;;;62.80;4.28;100595.63;5059979;28;65798;-65
2023/06/09 10:25:17;;;;;;;;;17.00;15.33;;;;;62.80;3.74;100603.47;5069950;28;45575;-65
2023/06/09 10:27:43;;;;;;;;;19.00;18.67;;;;;62.81;4.54;100594.38;5071333;27;45838;-65
2023/06/09 10:30:09;;;;;;;;;18.33;18.00;;;;;63.23;4.72;100595.94;5068478;28;45238;-64
2023/06/09 10:32:38;;;;;;;;;17.33;14.67;;;;;64.08;3.86;100585.69;5070761;28;45429;-65
2023/06/09 10:35:05;;;;;;;;;16.33;16.33;;;;;63.61;3.58;100596.28;5085070;27;45611;-65
2023/06/09 10:37:34;;;;;;;;;14.00;14.00;;;;;63.23;3.98;100602.56;5072496;27;46296;-65
2023/06/09 10:40:22;;;;;;;;;22.00;20.33;;;;;63.77;4.06;100597.56;5065098;28;45525;-65
2023/06/09 10:43:09;;;;;;;;;13.00;13.00;;;;;64.13;3.81;100585.94;5067320;28;45447;-65
2023/06/09 10:45:54;;;;;;;;;15.00;14.00;;;;;64.27;4.18;100590.50;5064410;28;45413;-65
2023/06/09 10:48:41;;;;;;;;;18.67;17.67;;;;;64.01;4.06;100595.31;5078131;28;47910;-65
2023/06/09 10:51:26;;;;;;;;;17.00;16.00;;;;;64.32;3.95;100588.31;5066415;28;45409;-65
2023/06/09 10:54:09;;;;;;;;;13.00;11.67;;;;;64.50;3.60;100590.72;5067751;27;45417;-65
2023/06/09 10:57:00;;;;;;;;;16.33;16.33;;;;;64.21;4.27;100580.78;5074843;28;45651;-65
2023/06/09 10:59:25;;;;;;;;;16.33;16.00;;;;;63.95;3.95;100592.16;5078447;28;45368;-65
2023/06/09 11:02:02;;;;;;;;;14.67;13.67;;;;;63.98;3.96;100576.00;5075374;28;45227;-65
2023/06/09 11:04:45;;;;;;;;;13.00;13.00;;;;;63.63;3.24;100590.06;5073649;28;45442;-65
2023/06/09 11:07:18;;;;;;;;;15.33;15.33;;;;;63.10;4.17;100576.47;5072224;27;45388;-65
2023/06/09 11:09:46;;;;;;;;;17.67;16.33;;;;;61.85;3.69;100575.56;5068089;28;47426;-65
2023/06/09 11:12:52;;;;;;;;;15.67;14.67;;;;;60.23;4.23;100589.13;5079620;27;45433;-65